Time;durP1;ratioP1;P1;durP2;ratioP2;P2;SDS_P1;SDS_P2;PMS_P1;PMS_P2;Temp;Humidity;BMP_temperature;BMP_pressure;BME280_temperature;BME280_humidity;BME280_pressure;Samples;Min_cycle;Max_cycle;Signal;HPM_P1;HPM_P2
2022/05/25 00:01:56;;;;;;;14.20;2.08;;;10.90;72.30;;;;;;4123054;28;20541;-85
2022/05/25 00:03:56;;;;;;;9.57;1.83;;;10.90;72.50;;;;;;4104564;28;20118;-84
2022/05/25 00:05:58;;;;;;;11.80;1.55;;;10.90;72.50;;;;;;4125390;28;20069;-85
2022/05/25 00:08:00;;;;;;;10.02;1.58;;;10.90;72.50;;;;;;4125744;28;20030;-84
2022/05/25 00:10:00;;;;;;;11.82;1.83;;;10.90;72.40;;;;;;4122932;28;20467;-84
2022/05/25 00:12:02;;;;;;;9.43;2.08;;;10.90;72.80;;;;;;4103775;28;20027;-85
2022/05/25 00:14:03;;;;;;;12.00;1.58;;;10.90;72.70;;;;;;4122505;28;20026;-85
2022/05/25 00:16:05;;;;;;;13.75;2.88;;;10.80;72.70;;;;;;4125171;28;20052;-85
2022/05/25 00:18:06;;;;;;;9.13;1.77;;;10.80;72.80;;;;;;4123986;28;20412;-85
2022/05/25 00:20:08;;;;;;;10.30;1.70;;;10.80;72.80;;;;;;4121485;28;21178;-85
2022/05/25 00:22:09;;;;;;;15.40;1.90;;;10.80;72.90;;;;;;4123571;28;20041;-85
2022/05/25 00:24:10;;;;;;;10.50;2.55;;;10.80;73.00;;;;;;4101755;28;20039;-86
2022/05/25 00:26:10;;;;;;;13.25;1.98;;;10.80;73.10;;;;;;4126657;28;20042;-85
2022/05/25 00:28:13;;;;;;;11.27;1.55;;;10.80;73.90;;;;;;4122975;28;20089;-85
2022/05/25 00:30:14;;;;;;;12.07;1.63;;;10.80;73.10;;;;;;4125115;28;20042;-85
2022/05/25 00:32:15;;;;;;;14.13;1.83;;;10.70;73.20;;;;;;4105455;28;20026;-85
2022/05/25 00:34:16;;;;;;;11.52;1.90;;;10.70;73.20;;;;;;4122916;28;20040;-86
2022/05/25 00:36:16;;;;;;;13.00;1.75;;;10.80;73.30;;;;;;4126488;28;20030;-85
2022/05/25 00:38:17;;;;;;;12.50;1.73;;;10.70;73.20;;;;;;4127736;28;20037;-86
2022/05/25 00:40:24;;;;;;;8.65;1.58;;;10.70;73.30;;;;;;4126670;28;20086;-84
2022/05/25 00:42:25;;;;;;;11.13;2.05;;;10.70;73.50;;;;;;4123478;28;20041;-85
2022/05/25 00:44:26;;;;;;;8.57;1.92;;;10.70;73.40;;;;;;4119247;28;20500;-86
2022/05/25 00:46:29;;;;;;;10.38;1.73;;;10.60;73.40;;;;;;4124240;28;20022;-85
2022/05/25 00:48:36;;;;;;;8.38;1.40;;;10.60;73.30;;;;;;4126731;28;20026;-84
2022/05/25 00:51:12;;;;;;;12.55;1.95;;;10.60;73.40;;;;;;4110046;28;20138;-85
2022/05/25 00:53:13;;;;;;;5.78;1.33;;;10.60;73.40;;;;;;4103739;28;20046;-85
2022/05/25 00:55:27;;;;;;;9.73;1.42;;;10.60;73.30;;;;;;4099422;28;20030;-84
2022/05/25 00:57:41;;;;;;;12.25;1.60;;;10.60;73.40;;;;;;4107104;28;20057;-85
2022/05/25 01:00:05;;;;;;;8.60;1.58;;;10.60;73.50;;;;;;4122961;28;20038;-85
2022/05/25 01:02:05;;;;;;;16.13;1.52;;;10.50;73.90;;;;;;4124135;28;20091;-85
2022/05/25 01:04:06;;;;;;;6.90;1.50;;;10.60;73.70;;;;;;4122038;28;20030;-85
2022/05/25 01:06:57;;;;;;;16.80;2.20;;;10.50;73.80;;;;;;4099998;28;20031;-85
2022/05/25 01:09:37;;;;;;;11.20;1.77;;;10.50;74.30;;;;;;4108371;28;20038;-86
2022/05/25 01:12:02;;;;;;;11.52;1.67;;;10.60;74.60;;;;;;4125318;28;20049;-85
2022/05/25 01:14:40;;;;;;;8.75;1.65;;;10.50;74.20;;;;;;4121061;28;20027;-86
2022/05/25 01:17:05;;;;;;;7.43;1.90;;;10.50;74.90;;;;;;4107376;28;20657;-86
2022/05/25 01:19:17;;;;;;;11.68;1.60;;;10.50;74.50;;;;;;4124729;28;20050;-86
2022/05/25 01:21:57;;;;;;;13.65;1.48;;;10.50;74.30;;;;;;4122311;28;20444;-86
2022/05/25 01:24:12;;;;;;;13.73;1.80;;;10.50;74.60;;;;;;4114777;28;20128;-86
2022/05/25 01:26:46;;;;;;;9.90;1.40;;;10.50;74.10;;;;;;4122995;28;20050;-85
2022/05/25 01:29:06;;;;;;;8.43;1.27;;;10.40;74.20;;;;;;4121540;28;20030;-85
2022/05/25 01:31:22;;;;;;;14.90;1.80;;;10.40;74.30;;;;;;4121528;28;20026;-85
2022/05/25 01:33:42;;;;;;;14.80;1.80;;;10.40;74.20;;;;;;4125111;28;20077;-85
2022/05/25 01:36:05;;;;;;;7.05;1.23;;;10.40;74.20;;;;;;4121739;28;20121;-85
2022/05/25 01:38:33;;;;;;;12.40;2.28;;;10.40;74.40;;;;;;4126562;28;20026;-86
2022/05/25 01:40:58;;;;;;;8.13;1.50;;;10.40;74.20;;;;;;4123483;28;20038;-85
2022/05/25 01:43:06;;;;;;;6.82;1.38;;;10.30;74.10;;;;;;4123408;28;20052;-85
2022/05/25 01:45:08;;;;;;;9.70;1.55;;;10.30;74.80;;;;;;4121454;28;20030;-85
2022/05/25 01:47:10;;;;;;;9.75;1.73;;;10.30;74.10;;;;;;4107994;28;20536;-85
2022/05/25 01:49:16;;;;;;;10.05;1.58;;;10.30;74.10;;;;;;4106069;28;20066;-85
2022/05/25 01:51:22;;;;;;;7.10;1.60;;;10.30;74.10;;;;;;4118493;28;20034;-85
2022/05/25 01:53:46;;;;;;;5.50;1.30;;;10.30;74.20;;;;;;4120759;28;20045;-85
2022/05/25 01:55:54;;;;;;;8.27;1.58;;;10.20;74.10;;;;;;4081757;28;21058;-85
2022/05/25 01:58:02;;;;;;;7.30;1.65;;;10.20;74.10;;;;;;4123146;28;20022;-85
2022/05/25 02:00:06;;;;;;;12.40;1.70;;;10.20;74.20;;;;;;4126884;28;20023;-84
2022/05/25 02:04:31;;;;;;;8.30;1.33;;;10.20;74.20;;;;;;4125199;28;20022;-84
2022/05/25 02:07:04;;;;;;;7.95;1.90;;;10.20;74.10;;;;;;4122903;28;20034;-85
2022/05/25 02:09:36;;;;;;;11.15;2.05;;;10.10;74.10;;;;;;4108114;28;20055;-85
2022/05/25 02:12:05;;;;;;;10.15;1.55;;;10.10;74.20;;;;;;4123306;28;20925;-84
2022/05/25 02:14:17;;;;;;;11.02;1.90;;;10.10;74.10;;;;;;4119284;28;20116;-84
2022/05/25 02:17:03;;;;;;;6.07;1.25;;;10.10;74.10;;;;;;4115523;28;20038;-84
2022/05/25 02:19:41;;;;;;;7.32;1.60;;;10.10;74.40;;;;;;4117124;28;20023;-84
2022/05/25 02:21:56;;;;;;;13.95;1.75;;;10.00;74.10;;;;;;4086973;28;20043;-86
2022/05/25 02:24:23;;;;;;;11.68;1.95;;;10.00;74.40;;;;;;4120301;28;20027;-85
2022/05/25 02:26:54;;;;;;;16.73;1.67;;;10.00;74.30;;;;;;4124638;28;20150;-85
2022/05/25 02:29:24;;;;;;;18.27;1.80;;;9.90;74.20;;;;;;4123934;28;20042;-85
2022/05/25 02:31:54;;;;;;;7.75;1.80;;;9.90;74.50;;;;;;4108650;28;20038;-85
2022/05/25 02:34:20;;;;;;;9.00;1.95;;;9.90;74.30;;;;;;4125756;28;20034;-85
2022/05/25 02:36:41;;;;;;;7.43;1.58;;;9.90;74.40;;;;;;4123502;28;20504;-85
2022/05/25 02:39:07;;;;;;;6.65;1.30;;;9.90;74.40;;;;;;4124044;28;20026;-85
2022/05/25 02:41:11;;;;;;;9.75;2.08;;;9.90;74.40;;;;;;4118979;28;20069;-85
2022/05/25 02:43:12;;;;;;;11.75;1.50;;;9.90;74.50;;;;;;4103920;28;20023;-84
2022/05/25 02:45:13;;;;;;;9.52;1.77;;;9.80;74.50;;;;;;4107354;28;20049;-85
2022/05/25 02:47:14;;;;;;;9.82;1.73;;;9.80;74.50;;;;;;4109329;28;20031;-85
2022/05/25 02:49:15;;;;;;;11.48;1.73;;;9.80;74.50;;;;;;4126389;28;20059;-85
2022/05/25 02:51:17;;;;;;;5.22;1.60;;;9.80;74.60;;;;;;4115562;28;20584;-85
2022/05/25 02:53:20;;;;;;;8.75;1.48;;;9.80;74.60;;;;;;4122110;28;20789;-85
2022/05/25 02:55:20;;;;;;;12.43;1.47;;;9.80;74.60;;;;;;4126992;28;20496;-84
2022/05/25 02:57:21;;;;;;;10.40;1.60;;;9.70;74.60;;;;;;4125731;28;20137;-85
2022/05/25 02:59:22;;;;;;;14.02;1.50;;;9.80;74.70;;;;;;4118049;28;20038;-84
2022/05/25 03:01:23;;;;;;;8.38;1.27;;;9.70;74.70;;;;;;4125374;28;20035;-86
2022/05/25 03:03:25;;;;;;;9.95;1.48;;;9.70;74.80;;;;;;4124680;28;20023;-85
2022/05/25 03:05:25;;;;;;;12.43;1.95;;;9.70;74.80;;;;;;4128978;28;20113;-86
2022/05/25 03:07:26;;;;;;;12.10;1.45;;;9.70;74.90;;;;;;4122760;28;20389;-85
2022/05/25 03:09:27;;;;;;;6.32;1.83;;;9.70;75.00;;;;;;4126646;28;20491;-86
2022/05/25 03:11:27;;;;;;;8.20;1.77;;;9.70;75.00;;;;;;4103675;28;20707;-86
2022/05/25 03:13:28;;;;;;;7.72;1.50;;;9.70;75.10;;;;;;4110100;28;20041;-85
2022/05/25 03:15:29;;;;;;;10.68;1.90;;;9.70;75.10;;;;;;4131138;28;20145;-85
2022/05/25 03:17:29;;;;;;;11.88;1.60;;;9.70;75.10;;;;;;4121533;28;20101;-85
2022/05/25 03:19:30;;;;;;;5.97;1.85;;;9.70;75.20;;;;;;4103275;28;20038;-85
2022/05/25 03:21:31;;;;;;;5.70;1.40;;;9.60;75.00;;;;;;4121741;28;20026;-85
2022/05/25 03:23:32;;;;;;;5.57;1.42;;;9.60;75.10;;;;;;4124782;28;20027;-85
2022/05/25 03:25:32;;;;;;;10.68;1.75;;;9.60;75.00;;;;;;4124536;28;20095;-85
2022/05/25 03:27:33;;;;;;;10.35;1.77;;;9.60;75.00;;;;;;4120628;28;20028;-84
2022/05/25 03:29:34;;;;;;;11.60;1.60;;;9.60;75.10;;;;;;4123245;28;20428;-84
2022/05/25 03:31:36;;;;;;;7.30;2.20;;;9.60;75.20;;;;;;4125283;28;20036;-84
2022/05/25 03:33:38;;;;;;;7.00;1.50;;;9.60;75.40;;;;;;4123755;28;20479;-85
2022/05/25 03:35:38;;;;;;;7.47;1.77;;;9.60;75.30;;;;;;4128617;28;20033;-84
2022/05/25 03:37:39;;;;;;;7.03;1.48;;;9.60;75.30;;;;;;4125843;28;20030;-85
2022/05/25 03:39:40;;;;;;;9.35;1.63;;;9.50;75.30;;;;;;4124106;28;20073;-85
2022/05/25 03:41:40;;;;;;;8.70;1.70;;;9.60;75.50;;;;;;4125987;28;20813;-85
2022/05/25 03:43:41;;;;;;;10.38;1.75;;;9.60;75.50;;;;;;4099750;28;20039;-85
2022/05/25 03:45:42;;;;;;;6.50;1.77;;;9.60;75.50;;;;;;4125122;28;20045;-85
2022/05/25 03:47:43;;;;;;;10.27;1.88;;;9.60;76.30;;;;;;4099693;28;20428;-84
2022/05/25 03:49:44;;;;;;;7.22;1.70;;;9.60;75.60;;;;;;4123471;28;20038;-84
2022/05/25 03:51:45;;;;;;;11.52;1.75;;;9.60;75.90;;;;;;4102843;28;20392;-84
2022/05/25 03:53:46;;;;;;;9.60;2.25;;;9.60;76.10;;;;;;4105048;28;20130;-84
2022/05/25 03:55:47;;;;;;;12.05;1.63;;;9.60;76.50;;;;;;4126641;28;20033;-84
2022/05/25 03:57:48;;;;;;;9.18;1.75;;;9.70;76.90;;;;;;4124964;28;20030;-84
2022/05/25 03:59:48;;;;;;;9.18;1.85;;;9.70;77.50;;;;;;4125552;28;20037;-83
2022/05/25 04:01:49;;;;;;;5.32;1.60;;;9.70;77.60;;;;;;4125919;28;20026;-84
2022/05/25 04:03:50;;;;;;;7.68;1.85;;;9.70;78.00;;;;;;4106585;28;20461;-84
2022/05/25 04:05:50;;;;;;;8.98;1.48;;;9.70;78.20;;;;;;4125346;28;20511;-85
2022/05/25 04:07:51;;;;;;;11.00;2.10;;;9.80;78.50;;;;;;4119545;28;20161;-84
2022/05/25 04:09:51;;;;;;;12.40;1.95;;;9.80;78.70;;;;;;4121579;28;20409;-84
2022/05/25 04:11:52;;;;;;;8.63;1.58;;;9.90;78.90;;;;;;4124581;28;20080;-84
2022/05/25 04:14:15;;;;;;;9.45;1.63;;;10.10;79.20;;;;;;4124223;28;20037;-84
2022/05/25 04:16:36;;;;;;;4.30;1.38;;;10.10;79.80;;;;;;4122875;28;20061;-84
2022/05/25 04:18:57;;;;;;;5.82;2.17;;;10.20;79.90;;;;;;4120989;28;20022;-84
2022/05/25 04:21:18;;;;;;;12.15;2.25;;;10.30;79.60;;;;;;4122202;28;20038;-85
2022/05/25 04:23:38;;;;;;;13.30;2.00;;;10.40;79.40;;;;;;4119387;28;20034;-84
2022/05/25 04:25:59;;;;;;;11.30;1.63;;;10.50;79.30;;;;;;4106663;28;20035;-85
2022/05/25 04:28:20;;;;;;;9.52;1.92;;;10.50;79.10;;;;;;4125252;28;20030;-84
2022/05/25 04:30:40;;;;;;;7.70;1.58;;;10.70;79.00;;;;;;4126385;28;20471;-85
2022/05/25 04:33:01;;;;;;;11.63;2.10;;;10.70;79.00;;;;;;4125017;28;20061;-85
2022/05/25 04:35:23;;;;;;;14.38;1.90;;;10.80;79.20;;;;;;4118123;28;20030;-85
2022/05/25 04:37:49;;;;;;;7.63;1.52;;;10.80;78.70;;;;;;4120627;28;20034;-84
2022/05/25 04:40:11;;;;;;;9.15;1.70;;;10.90;78.30;;;;;;4125977;28;20121;-85
2022/05/25 04:42:12;;;;;;;6.38;1.70;;;11.10;78.40;;;;;;4126692;28;20523;-84
2022/05/25 04:44:13;;;;;;;7.00;2.03;;;11.20;77.70;;;;;;4103659;28;20074;-85
2022/05/25 04:46:13;;;;;;;10.35;1.58;;;11.20;76.80;;;;;;4108431;28;20038;-85
2022/05/25 04:48:16;;;;;;;6.35;1.73;;;11.20;76.60;;;;;;4121662;28;20381;-85
2022/05/25 04:50:20;;;;;;;7.18;1.75;;;11.30;76.70;;;;;;4121978;28;20098;-85
2022/05/25 04:52:21;;;;;;;10.23;1.67;;;11.30;76.40;;;;;;4117348;28;20026;-85
2022/05/25 04:54:21;;;;;;;8.60;1.75;;;11.40;75.80;;;;;;4124704;28;20030;-84
2022/05/25 04:58:44;;;;;;;9.07;1.52;;;11.50;75.40;;;;;;4119824;28;20023;-84
2022/05/25 05:00:44;;;;;;;10.60;1.63;;;11.60;75.10;;;;;;4120993;28;20374;-85
2022/05/25 05:02:45;;;;;;;6.93;1.33;;;11.70;75.00;;;;;;4119327;28;20085;-84
2022/05/25 05:04:47;;;;;;;7.97;1.50;;;11.70;75.30;;;;;;4125794;28;20030;-84
2022/05/25 05:06:49;;;;;;;8.65;1.38;;;11.80;75.30;;;;;;4116788;28;20041;-85
2022/05/25 05:08:49;;;;;;;9.30;1.42;;;11.80;74.90;;;;;;4110082;28;20081;-85
2022/05/25 05:10:51;;;;;;;5.05;1.33;;;11.90;75.10;;;;;;4104737;28;20095;-84
2022/05/25 05:12:52;;;;;;;6.50;1.33;;;12.00;74.90;;;;;;4120039;28;20525;-85
2022/05/25 05:14:52;;;;;;;5.38;1.38;;;12.10;74.20;;;;;;4122980;28;20040;-84
2022/05/25 05:16:58;;;;;;;6.30;1.30;;;12.10;73.50;;;;;;4115433;28;20022;-86
2022/05/25 05:18:59;;;;;;;7.28;1.27;;;12.20;73.10;;;;;;4117526;28;20042;-85
2022/05/25 05:21:00;;;;;;;5.70;1.30;;;12.30;72.70;;;;;;4116633;28;20023;-85
2022/05/25 05:23:01;;;;;;;9.20;1.75;;;12.30;72.10;;;;;;4113859;28;20042;-84
2022/05/25 05:25:02;;;;;;;7.03;1.35;;;12.30;72.00;;;;;;4117469;28;20023;-85
2022/05/25 05:27:06;;;;;;;12.82;1.20;;;12.40;71.70;;;;;;4122438;28;20027;-84
2022/05/25 05:29:32;;;;;;;;;;;;;;;;;;;;;
2022/05/25 05:31:48;;;;;;;8.77;1.00;;;12.50;71.20;;;;;;4128564;28;20038;-93
2022/05/25 05:33:57;;;;;;;2.60;0.95;;;12.60;71.40;;;;;;4126798;28;20042;-94
2022/05/25 05:36:29;;;;;;;7.47;1.00;;;12.60;71.70;;;;;;4112951;28;20537;-93
2022/05/25 05:38:44;;;;;;;7.47;1.20;;;12.60;71.50;;;;;;4114959;28;20023;-93
2022/05/25 05:40:56;;;;;;;4.20;1.00;;;12.80;71.40;;;;;;4126618;28;20396;-94
2022/05/25 05:43:16;;;;;;;5.80;1.10;;;12.80;71.40;;;;;;4099689;28;20039;-92
2022/05/25 05:48:21;;;;;;;5.85;1.05;;;12.90;71.20;;;;;;4093922;28;20173;-93
2022/05/25 05:50:49;;;;;;;4.72;0.93;;;13.00;70.90;;;;;;4128249;28;20030;-92
2022/05/25 05:52:57;;;;;;;7.63;1.10;;;13.10;71.00;;;;;;4125545;28;20035;-90
2022/05/25 05:55:07;;;;;;;5.68;1.00;;;13.10;70.80;;;;;;4126748;28;20030;-94
2022/05/25 05:57:33;;;;;;;;;;;;;;;;;;;;;
2022/05/25 05:59:34;;;;;;;7.65;1.15;;;13.30;69.60;;;;;;4126191;28;20662;-92
2022/05/25 06:01:58;;;;;;;2.92;1.00;;;13.30;69.70;;;;;;4111455;28;20043;-91
2022/05/25 06:04:05;;;;;;;3.08;0.60;;;13.40;69.60;;;;;;4113421;28;20035;-91
2022/05/25 06:06:13;;;;;;;7.28;0.68;;;13.50;69.50;;;;;;4110302;28;20042;-90
2022/05/25 06:08:18;;;;;;;7.28;0.90;;;13.50;69.30;;;;;;4126063;28;20046;-91
2022/05/25 06:10:19;;;;;;;5.78;0.80;;;13.50;68.70;;;;;;4111079;28;20691;-93
2022/05/25 06:12:36;;;;;;;4.28;0.75;;;13.60;68.60;;;;;;4100200;28;20023;-92
2022/05/25 06:14:43;;;;;;;10.23;1.70;;;13.70;68.70;;;;;;4097604;29;20039;-91
2022/05/25 06:19:33;;;;;;;3.85;0.90;;;13.80;67.80;;;;;;4116927;28;20026;-92
2022/05/25 06:21:43;;;;;;;8.55;0.70;;;13.90;67.10;;;;;;4108690;28;20037;-90
2022/05/25 06:26:38;;;;;;;2.25;0.80;;;14.00;66.20;;;;;;4127664;28;20038;-91
2022/05/25 06:28:45;;;;;;;4.55;1.35;;;14.00;66.80;;;;;;4123432;28;20030;-91
2022/05/25 06:30:46;;;;;;;4.72;0.90;;;14.10;66.30;;;;;;4111383;28;20094;-92
2022/05/25 06:32:49;;;;;;;2.70;0.80;;;14.20;65.60;;;;;;4122493;28;20405;-90
2022/05/25 06:34:57;;;;;;;3.80;0.73;;;14.20;64.40;;;;;;4111109;28;20496;-91
2022/05/25 06:37:22;;;;;;;3.08;0.85;;;14.30;64.40;;;;;;4114612;28;20023;-92
2022/05/25 06:39:39;;;;;;;3.75;0.70;;;14.40;64.20;;;;;;4125821;28;20550;-90
2022/05/25 06:41:49;;;;;;;3.42;0.90;;;14.40;64.90;;;;;;4122728;28;20484;-91
2022/05/25 06:43:50;;;;;;;4.47;1.20;;;14.50;64.80;;;;;;4129822;28;20038;-90
2022/05/25 06:45:53;;;;;;;;;;;14.50;64.40;;;;;;4109770;28;20031;-91
2022/05/25 06:47:54;;;;;;;3.78;0.77;;;14.50;62.60;;;;;;4114555;28;19906;-90
2022/05/25 06:49:55;;;;;;;5.10;0.73;;;14.60;63.50;;;;;;4120550;28;21395;-90
2022/05/25 06:52:05;;;;;;;5.85;0.95;;;14.60;63.20;;;;;;4109967;28;20065;-90
2022/05/25 06:54:21;;;;;;;5.88;1.10;;;14.70;63.00;;;;;;4114448;28;20449;-92
2022/05/25 06:56:25;;;;;;;3.28;0.90;;;14.70;62.60;;;;;;4111164;28;20065;-92
2022/05/25 06:58:26;;;;;;;3.85;1.00;;;14.80;62.60;;;;;;4108322;28;20105;-83
2022/05/25 07:00:27;;;;;;;1.27;0.90;;;14.80;62.20;;;;;;4093209;28;20035;-82
2022/05/25 07:02:28;;;;;;;2.33;1.15;;;14.80;62.50;;;;;;4094991;28;20023;-80
2022/05/25 07:04:28;;;;;;;11.05;1.50;;;14.90;62.00;;;;;;4126988;28;20618;-83
2022/05/25 07:06:29;;;;;;;8.35;1.38;;;14.90;61.30;;;;;;4123704;28;20030;-82
2022/05/25 07:08:31;;;;;;;3.65;1.25;;;14.90;61.50;;;;;;4108556;28;20054;-80
2022/05/25 07:10:32;;;;;;;2.80;1.10;;;15.00;61.20;;;;;;4128327;28;20022;-83
2022/05/25 07:12:33;;;;;;;4.68;1.55;;;15.10;61.50;;;;;;4112517;28;20082;-82
2022/05/25 07:14:35;;;;;;;5.57;1.30;;;15.10;61.00;;;;;;4126987;28;20030;-83
2022/05/25 07:16:36;;;;;;;5.97;1.33;;;15.20;60.50;;;;;;4130063;28;20413;-80
2022/05/25 07:18:37;;;;;;;4.15;1.50;;;15.30;60.70;;;;;;4128299;28;20073;-83
2022/05/25 07:20:38;;;;;;;1.83;1.20;;;15.30;60.50;;;;;;4126321;28;20483;-81
2022/05/25 07:22:40;;;;;;;4.82;1.20;;;15.30;60.30;;;;;;4124710;28;20057;-79
2022/05/25 07:24:41;;;;;;;5.28;1.67;;;15.30;60.50;;;;;;4111685;28;20540;-80
2022/05/25 07:26:41;;;;;;;4.40;1.42;;;15.40;60.50;;;;;;4122291;28;20089;-81
2022/05/25 07:28:43;;;;;;;6.20;1.30;;;15.40;60.60;;;;;;4109371;28;20346;-80
2022/05/25 07:30:43;;;;;;;2.88;1.45;;;15.40;60.90;;;;;;4120011;28;20043;-81
2022/05/25 07:32:46;;;;;;;2.85;1.20;;;15.40;60.10;;;;;;4124862;28;20735;-83
2022/05/25 07:34:54;;;;;;;7.10;1.60;;;15.50;61.00;;;;;;4128081;28;20046;-83
2022/05/25 07:37:00;;;;;;;3.67;1.60;;;15.50;60.00;;;;;;4106314;28;20426;-83
2022/05/25 07:39:04;;;;;;;3.75;1.30;;;15.50;59.90;;;;;;4128463;28;20056;-82
2022/05/25 07:41:04;;;;;;;5.72;1.40;;;15.60;59.80;;;;;;4108229;28;20090;-83
2022/05/25 07:43:12;;;;;;;8.18;1.48;;;15.60;59.70;;;;;;4119654;28;20022;-83
2022/05/25 07:45:13;;;;;;;4.40;1.48;;;15.60;59.20;;;;;;4121415;28;20045;-83
2022/05/25 07:47:14;;;;;;;4.55;1.15;;;15.60;59.60;;;;;;4126589;28;20105;-81
2022/05/25 07:49:16;;;;;;;4.82;1.10;;;15.70;59.80;;;;;;4127896;28;20093;-84
2022/05/25 07:51:17;;;;;;;2.10;1.20;;;15.70;59.80;;;;;;4112780;28;20114;-82
2022/05/25 07:55:37;;;;;;;4.22;1.17;;;15.80;58.80;;;;;;4128249;28;20072;-84
2022/05/25 07:57:38;;;;;;;2.50;1.30;;;15.80;58.80;;;;;;4125576;28;20034;-82
2022/05/25 07:59:40;;;;;;;1.92;1.00;;;15.80;58.30;;;;;;4116481;28;20042;-82
2022/05/25 08:06:28;;;;;;;3.08;1.10;;;15.90;58.90;;;;;;4123180;28;20030;-83
2022/05/25 08:08:29;;;;;;;3.05;1.10;;;15.90;58.70;;;;;;4109388;28;20085;-84
2022/05/25 08:10:30;;;;;;;4.45;1.13;;;16.00;58.80;;;;;;4128489;28;20034;-83
2022/05/25 08:12:31;;;;;;;1.42;0.82;;;16.10;58.50;;;;;;4121064;28;20038;-83
2022/05/25 08:14:32;;;;;;;3.05;1.10;;;16.10;58.10;;;;;;4128558;28;20038;-82
2022/05/25 08:16:33;;;;;;;9.27;1.30;;;16.10;57.90;;;;;;4112760;28;20477;-84
2022/05/25 08:18:34;;;;;;;2.78;1.20;;;16.20;57.50;;;;;;4112883;28;20876;-80
2022/05/25 08:20:35;;;;;;;4.88;1.25;;;16.20;57.30;;;;;;4124334;28;20034;-83
2022/05/25 08:22:37;;;;;;;2.30;1.50;;;16.20;57.60;;;;;;4128747;28;20042;-84
2022/05/25 08:24:38;;;;;;;7.25;1.30;;;16.20;57.50;;;;;;4123535;28;20037;-82
2022/05/25 08:26:38;;;;;;;5.88;1.60;;;16.30;57.50;;;;;;4126010;28;20113;-83
2022/05/25 08:28:39;;;;;;;3.60;1.25;;;16.30;57.00;;;;;;4123693;28;20113;-82
2022/05/25 08:30:42;;;;;;;2.53;1.20;;;16.30;57.10;;;;;;4107120;28;20089;-83
2022/05/25 08:32:43;;;;;;;7.33;1.77;;;16.30;56.80;;;;;;4123784;28;20566;-81
2022/05/25 08:34:45;;;;;;;3.92;1.50;;;16.30;57.00;;;;;;4118326;28;20041;-84
2022/05/25 08:36:46;;;;;;;6.03;1.52;;;16.30;57.10;;;;;;4123530;28;20030;-81
2022/05/25 08:38:46;;;;;;;2.78;1.45;;;16.40;57.20;;;;;;4124402;28;20107;-84
2022/05/25 08:41:19;;;;;;;6.70;1.52;;;16.40;56.80;;;;;;4126957;28;20061;-96
2022/05/25 08:43:51;;;;;;;6.55;1.60;;;16.40;55.70;;;;;;4114646;28;20150;-93
2022/05/25 08:45:58;;;;;;;4.80;1.70;;;16.30;55.50;;;;;;4118315;28;20034;-95
2022/05/25 08:48:11;;;;;;;5.78;1.80;;;16.40;56.60;;;;;;4113543;28;20022;-94
2022/05/25 08:50:22;;;;;;;5.82;1.95;;;16.40;56.80;;;;;;4118374;28;20023;-91
2022/05/25 08:52:35;;;;;;;3.08;1.70;;;16.50;57.00;;;;;;4115734;28;20601;-93
2022/05/25 08:54:42;;;;;;;6.97;2.08;;;16.50;57.00;;;;;;4112929;28;20616;-93
2022/05/25 08:57:46;;;;;;;5.25;1.65;;;16.60;57.10;;;;;;4095655;28;20031;-93
2022/05/25 09:00:04;;;;;;;3.00;1.95;;;16.70;55.30;;;;;;4067892;29;20142;-95
2022/05/25 09:02:20;;;;;;;2.15;1.27;;;16.70;55.60;;;;;;4080930;29;20028;-92
2022/05/25 09:04:32;;;;;;;6.13;1.73;;;16.70;55.30;;;;;;4097598;28;20129;-91
2022/05/25 09:07:12;;;;;;;4.35;1.65;;;16.70;55.40;;;;;;4120711;28;20031;-91
2022/05/25 09:09:45;;;;;;;2.80;1.38;;;16.70;55.20;;;;;;4137457;28;20034;-93
2022/05/25 09:11:52;;;;;;;8.38;1.70;;;16.60;55.00;;;;;;4122182;28;20062;-94
2022/05/25 09:14:20;;;;;;;2.70;1.33;;;16.50;54.60;;;;;;4117696;28;20034;-93
2022/05/25 09:16:23;;;;;;;2.92;1.65;;;16.40;54.50;;;;;;4119291;28;20030;-91
2022/05/25 09:18:36;;;;;;;2.45;1.42;;;16.40;54.90;;;;;;4133629;28;20037;-94
2022/05/25 09:20:49;;;;;;;7.15;2.28;;;16.30;55.00;;;;;;4119441;28;20611;-94
2022/05/25 09:22:51;;;;;;;3.47;1.90;;;16.40;55.60;;;;;;4117562;28;20062;-93
2022/05/25 09:25:21;;;;;;;6.40;1.83;;;16.40;55.90;;;;;;4117783;28;20035;-93
2022/05/25 09:27:31;;;;;;;6.50;2.60;;;16.40;56.00;;;;;;4132245;28;20035;-91
2022/05/25 09:29:32;;;;;;;7.32;2.85;;;16.50;55.80;;;;;;4115161;28;20029;-91
2022/05/25 09:31:50;;;;;;;10.40;3.50;;;16.50;56.00;;;;;;4112571;28;20074;-92
2022/05/25 09:34:03;;;;;;;5.27;2.77;;;16.60;55.80;;;;;;4110639;28;20050;-92
2022/05/25 09:36:29;;;;;;;3.95;1.55;;;16.70;55.60;;;;;;4122366;28;20460;-91
2022/05/25 09:39:00;;;;;;;4.60;1.42;;;16.70;55.70;;;;;;4099118;28;20035;-93
2022/05/25 09:41:13;;;;;;;3.78;1.27;;;16.90;55.00;;;;;;4131038;28;20030;-94
2022/05/25 09:43:32;;;;;;;6.07;1.83;;;17.00;55.30;;;;;;4119904;28;20469;-91
2022/05/25 09:45:46;;;;;;;3.75;1.48;;;17.10;54.90;;;;;;4132190;28;20101;-92
2022/05/25 09:47:52;;;;;;;4.55;2.05;;;17.10;53.80;;;;;;4131401;28;20026;-94
2022/05/25 09:49:57;;;;;;;3.65;1.55;;;17.20;54.10;;;;;;4115598;28;20023;-93
2022/05/25 09:52:05;;;;;;;4.53;1.52;;;17.30;54.40;;;;;;4123313;28;20547;-94
2022/05/25 09:54:28;;;;;;;5.82;1.83;;;17.40;54.40;;;;;;4110244;28;20039;-92
2022/05/25 09:56:33;;;;;;;10.80;1.70;;;17.50;53.30;;;;;;4100761;28;20110;-91
2022/05/25 09:58:51;;;;;;;2.47;1.48;;;17.60;53.20;;;;;;4136599;28;20121;-92
2022/05/25 10:01:23;;;;;;;4.97;1.88;;;17.60;52.80;;;;;;4117021;28;20019;-92
2022/05/25 10:06:23;;;;;;;4.38;1.60;;;17.80;51.80;;;;;;4116684;28;20113;-93
2022/05/25 10:08:36;;;;;;;5.45;2.17;;;17.90;50.60;;;;;;4099952;28;20110;-93
2022/05/25 10:11:08;;;;;;;4.07;1.75;;;18.00;51.00;;;;;;4094904;28;20558;-93
2022/05/25 10:13:19;;;;;;;4.97;1.40;;;18.00;49.70;;;;;;4131022;28;20034;-92
2022/05/25 10:15:39;;;;;;;3.10;1.50;;;18.10;49.60;;;;;;4115211;28;20066;-91
2022/05/25 10:17:41;;;;;;;2.28;1.33;;;18.10;49.10;;;;;;4112138;28;20026;-93
2022/05/25 10:19:54;;;;;;;5.72;1.55;;;18.10;49.10;;;;;;4113496;28;20027;-93
2022/05/25 10:22:05;;;;;;;2.50;1.48;;;18.10;48.80;;;;;;4113854;28;20019;-95
2022/05/25 10:24:25;;;;;;;3.63;1.20;;;18.10;48.90;;;;;;4117116;28;20034;-94
2022/05/25 10:26:43;;;;;;;7.82;1.63;;;18.10;49.50;;;;;;4120001;28;20628;-93
2022/05/25 10:28:55;;;;;;;4.90;1.17;;;18.10;49.30;;;;;;4115510;28;20023;-94
2022/05/25 10:38:30;;;;;;;4.45;1.80;;;18.30;49.50;;;;;;4128532;28;20026;-93
2022/05/25 10:40:32;;;;;;;4.20;1.70;;;18.30;49.50;;;;;;4110382;28;20520;-92
2022/05/25 10:42:37;;;;;;;4.50;1.85;;;18.40;49.90;;;;;;4113330;28;20035;-93
2022/05/25 10:44:52;;;;;;;14.18;1.50;;;18.40;50.20;;;;;;4115109;28;20038;-92
2022/05/25 10:47:20;;;;;;;4.70;1.58;;;18.40;49.50;;;;;;4130958;28;20084;-94
2022/05/25 10:49:36;;;;;;;4.38;1.85;;;18.50;48.70;;;;;;4125373;28;20050;-93
2022/05/25 10:51:46;;;;;;;3.17;1.70;;;18.50;48.30;;;;;;4113912;28;20047;-91
2022/05/25 10:57:03;;;;;;;;;;;18.50;47.80;;;;;;4129864;28;20079;-92
2022/05/25 10:59:27;;;;;;;4.53;1.70;;;18.50;48.10;;;;;;4069330;29;19907;-93
2022/05/25 11:02:00;;;;;;;5.25;2.10;;;18.50;49.10;;;;;;4095222;28;20034;-93
2022/05/25 11:04:29;;;;;;;4.88;1.88;;;18.60;49.00;;;;;;4111829;28;20127;-91
2022/05/25 11:06:47;;;;;;;8.88;1.80;;;18.60;48.00;;;;;;4130171;28;20022;-93
2022/05/25 11:09:13;;;;;;;4.45;1.75;;;18.60;48.60;;;;;;4098751;28;20034;-93
2022/05/25 11:11:32;;;;;;;5.60;1.85;;;18.60;47.10;;;;;;4107941;28;20042;-91
2022/05/25 11:13:44;;;;;;;2.53;1.40;;;18.60;47.60;;;;;;4126775;28;20046;-91
2022/05/25 11:15:59;;;;;;;5.60;1.60;;;18.70;46.60;;;;;;4094492;28;20031;-92
2022/05/25 11:18:31;;;;;;;3.03;1.42;;;18.60;46.20;;;;;;4122556;28;20065;-92
2022/05/25 11:21:16;;;;;;;4.55;1.52;;;18.60;46.30;;;;;;4110378;28;20031;-93
2022/05/25 11:23:38;;;;;;;2.33;1.35;;;18.60;47.00;;;;;;4073699;29;20039;-93
2022/05/25 11:26:14;;;;;;;6.05;1.60;;;18.50;45.80;;;;;;4077828;29;20028;-93
2022/05/25 11:28:48;;;;;;;4.32;1.60;;;18.50;45.00;;;;;;4092178;28;20031;-92
2022/05/25 11:31:06;;;;;;;3.50;1.20;;;18.50;45.80;;;;;;4107359;28;20106;-91
2022/05/25 11:33:47;;;;;;;10.77;1.60;;;18.60;46.00;;;;;;4110653;28;20099;-93
2022/05/25 11:36:37;;;;;;;8.05;2.28;;;18.60;47.20;;;;;;4111810;28;20040;-91
2022/05/25 11:39:05;;;;;;;5.47;2.22;;;18.70;47.90;;;;;;4067977;29;20719;-92
2022/05/25 11:41:26;;;;;;;5.45;2.15;;;18.60;47.40;;;;;;4091012;28;20027;-90
2022/05/25 11:44:09;;;;;;;3.67;1.45;;;18.70;46.80;;;;;;4112456;28;20038;-91
2022/05/25 11:46:36;;;;;;;8.63;1.48;;;18.70;46.20;;;;;;4109880;28;20039;-91
2022/05/25 11:49:15;;;;;;;4.05;1.70;;;18.70;45.70;;;;;;4126857;28;20073;-91
2022/05/25 11:52:03;;;;;;;;;;;18.70;46.30;;;;;;4096620;28;20090;-93
2022/05/25 11:54:44;;;;;;;3.97;2.00;;;18.70;46.30;;;;;;4118325;28;19914;-93
2022/05/25 11:57:34;;;;;;;4.40;1.92;;;18.60;46.50;;;;;;4112446;28;20026;-92